sensor_id;sensor_type;location;lat;lon;timestamp;noise_LAeq;noise_LA_min;noise_LA_max;noise_LA01;noise_LA95
57439;Laerm;43282;47.188;8.896;2023-07-09T00:02:00;50.08;41.61;63.37;;
57439;Laerm;43282;47.188;8.896;2023-07-09T00:04:26;49.58;41.46;60.77;;
57439;Laerm;43282;47.188;8.896;2023-07-09T00:06:53;47.95;40.53;58.60;;
57439;Laerm;43282;47.188;8.896;2023-07-09T00:09:20;48.35;40.89;62.33;;
57439;Laerm;43282;47.188;8.896;2023-07-09T00:11:46;48.55;40.80;62.35;;
57439;Laerm;43282;47.188;8.896;2023-07-09T00:14:12;46.68;40.03;60.83;;
57439;Laerm;43282;47.188;8.896;2023-07-09T00:16:39;47.35;39.92;60.64;;
57439;Laerm;43282;47.188;8.896;2023-07-09T00:19:07;47.08;41.61;59.85;;
57439;Laerm;43282;47.188;8.896;2023-07-09T00:21:36;52.34;40.13;67.27;;
57439;Laerm;43282;47.188;8.896;2023-07-09T00:24:01;49.30;41.46;64.09;;
57439;Laerm;43282;47.188;8.896;2023-07-09T00:26:30;46.60;40.03;60.08;;
57439;Laerm;43282;47.188;8.896;2023-07-09T00:28:56;46.75;39.92;58.36;;
57439;Laerm;43282;47.188;8.896;2023-07-09T00:31:21;47.11;40.23;59.70;;
57439;Laerm;43282;47.188;8.896;2023-07-09T00:33:48;49.92;39.70;63.46;;
57439;Laerm;43282;47.188;8.896;2023-07-09T00:36:15;51.21;40.23;64.96;;
57439;Laerm;43282;47.188;8.896;2023-07-09T00:38:41;48.77;40.96;60.36;;
57439;Laerm;43282;47.188;8.896;2023-07-09T00:41:19;47.45;40.03;56.53;;
57439;Laerm;43282;47.188;8.896;2023-07-09T00:43:46;47.64;39.70;59.24;;
57439;Laerm;43282;47.188;8.896;2023-07-09T00:48:37;51.14;40.71;63.25;;
57439;Laerm;43282;47.188;8.896;2023-07-09T00:51:04;49.64;41.46;64.61;;
57439;Laerm;43282;47.188;8.896;2023-07-09T00:53:35;48.85;40.13;61.37;;
57439;Laerm;43282;47.188;8.896;2023-07-09T00:56:02;46.98;39.21;60.46;;
57439;Laerm;43282;47.188;8.896;2023-07-09T00:58:29;53.67;42.82;72.27;;
57439;Laerm;43282;47.188;8.896;2023-07-09T01:00:56;51.18;41.38;62.69;;
57439;Laerm;43282;47.188;8.896;2023-07-09T01:03:35;49.54;39.70;60.57;;
57439;Laerm;43282;47.188;8.896;2023-07-09T01:06:00;48.25;40.89;59.42;;
57439;Laerm;43282;47.188;8.896;2023-07-09T01:08:27;46.33;40.13;59.74;;
57439;Laerm;43282;47.188;8.896;2023-07-09T01:10:56;48.93;40.98;61.28;;
57439;Laerm;43282;47.188;8.896;2023-07-09T01:13:21;47.10;41.89;59.94;;
57439;Laerm;43282;47.188;8.896;2023-07-09T01:15:46;46.71;39.46;61.92;;
57439;Laerm;43282;47.188;8.896;2023-07-09T01:18:18;45.01;39.92;55.40;;
57439;Laerm;43282;47.188;8.896;2023-07-09T01:20:44;46.80;40.18;58.92;;
57439;Laerm;43282;47.188;8.896;2023-07-09T01:23:11;48.14;40.71;61.66;;
57439;Laerm;43282;47.188;8.896;2023-07-09T01:25:38;48.30;39.81;62.54;;
57439;Laerm;43282;47.188;8.896;2023-07-09T01:28:06;42.91;38.52;55.07;;
57439;Laerm;43282;47.188;8.896;2023-07-09T01:30:38;50.53;41.30;63.40;;
57439;Laerm;43282;47.188;8.896;2023-07-09T01:33:05;47.28;40.13;59.70;;
57439;Laerm;43282;47.188;8.896;2023-07-09T01:35:32;46.69;40.43;58.18;;
57439;Laerm;43282;47.188;8.896;2023-07-09T01:37:58;49.94;41.38;64.04;;
57439;Laerm;43282;47.188;8.896;2023-07-09T01:40:24;48.71;39.34;61.53;;
57439;Laerm;43282;47.188;8.896;2023-07-09T01:42:51;45.67;40.53;59.12;;
57439;Laerm;43282;47.188;8.896;2023-07-09T01:45:16;47.83;40.62;58.47;;
57439;Laerm;43282;47.188;8.896;2023-07-09T01:47:42;46.61;40.80;60.11;;
57439;Laerm;43282;47.188;8.896;2023-07-09T01:50:09;49.62;40.33;61.16;;
57439;Laerm;43282;47.188;8.896;2023-07-09T01:52:35;50.06;41.53;62.01;;
57439;Laerm;43282;47.188;8.896;2023-07-09T01:55:01;46.21;39.70;59.72;;
57439;Laerm;43282;47.188;8.896;2023-07-09T01:57:28;49.47;39.92;62.44;;
57439;Laerm;43282;47.188;8.896;2023-07-09T02:00:00;46.45;38.37;58.98;;
57439;Laerm;43282;47.188;8.896;2023-07-09T02:02:26;43.73;39.21;57.51;;
57439;Laerm;43282;47.188;8.896;2023-07-09T02:04:52;49.11;38.81;62.48;;
57439;Laerm;43282;47.188;8.896;2023-07-09T02:07:18;45.77;40.13;60.13;;
57439;Laerm;43282;47.188;8.896;2023-07-09T02:09:44;47.63;40.62;62.37;;
57439;Laerm;43282;47.188;8.896;2023-07-09T02:12:10;47.41;39.58;61.27;;
57439;Laerm;43282;47.188;8.896;2023-07-09T02:14:36;46.33;39.08;60.45;;
57439;Laerm;43282;47.188;8.896;2023-07-09T02:17:01;47.48;39.46;62.62;;
57439;Laerm;43282;47.188;8.896;2023-07-09T02:19:28;47.03;39.46;59.63;;
57439;Laerm;43282;47.188;8.896;2023-07-09T02:21:53;46.00;40.33;58.67;;
57439;Laerm;43282;47.188;8.896;2023-07-09T02:24:18;47.85;41.61;60.82;;
57439;Laerm;43282;47.188;8.896;2023-07-09T02:26:44;46.13;40.71;57.05;;
57439;Laerm;43282;47.188;8.896;2023-07-09T02:29:10;48.71;41.22;63.58;;
57439;Laerm;43282;47.188;8.896;2023-07-09T02:31:35;45.99;40.53;54.44;;
57439;Laerm;43282;47.188;8.896;2023-07-09T02:34:01;46.56;39.58;59.06;;
57439;Laerm;43282;47.188;8.896;2023-07-09T02:36:28;47.27;40.53;63.14;;
57439;Laerm;43282;47.188;8.896;2023-07-09T02:38:53;45.62;40.13;56.30;;
57439;Laerm;43282;47.188;8.896;2023-07-09T02:41:18;48.42;40.62;62.06;;
57439;Laerm;43282;47.188;8.896;2023-07-09T02:43:44;48.29;40.80;59.89;;
57439;Laerm;43282;47.188;8.896;2023-07-09T02:46:10;50.93;40.62;65.09;;
57439;Laerm;43282;47.188;8.896;2023-07-09T02:48:35;50.67;40.03;64.31;;
57439;Laerm;43282;47.188;8.896;2023-07-09T02:51:00;52.23;40.33;70.89;;
57439;Laerm;43282;47.188;8.896;2023-07-09T02:53:26;53.52;41.22;71.31;;
57439;Laerm;43282;47.188;8.896;2023-07-09T02:55:52;54.25;40.71;71.30;;
57439;Laerm;43282;47.188;8.896;2023-07-09T02:58:17;54.44;41.06;70.77;;
57439;Laerm;43282;47.188;8.896;2023-07-09T03:00:42;53.63;39.57;71.75;;
57439;Laerm;43282;47.188;8.896;2023-07-09T03:03:08;52.47;39.81;69.78;;
57439;Laerm;43282;47.188;8.896;2023-07-09T03:05:33;53.27;38.37;71.84;;
57439;Laerm;43282;47.188;8.896;2023-07-09T03:07:58;52.97;40.13;70.28;;
57439;Laerm;43282;47.188;8.896;2023-07-09T03:10:24;52.88;40.89;73.27;;
57439;Laerm;43282;47.188;8.896;2023-07-09T03:12:49;50.79;39.81;62.66;;
57439;Laerm;43282;47.188;8.896;2023-07-09T03:15:14;53.40;41.53;67.44;;
57439;Laerm;43282;47.188;8.896;2023-07-09T03:17:39;53.23;41.61;65.92;;
57439;Laerm;43282;47.188;8.896;2023-07-09T03:20:05;53.90;41.82;66.47;;
57439;Laerm;43282;47.188;8.896;2023-07-09T03:22:33;54.70;42.59;67.79;;
57439;Laerm;43282;47.188;8.896;2023-07-09T03:24:58;57.61;41.46;70.86;;
57439;Laerm;43282;47.188;8.896;2023-07-09T03:27:23;58.17;41.75;72.69;;
57439;Laerm;43282;47.188;8.896;2023-07-09T03:29:48;58.79;42.22;70.92;;
57439;Laerm;43282;47.188;8.896;2023-07-09T03:32:14;57.85;42.06;68.64;;
57439;Laerm;43282;47.188;8.896;2023-07-09T03:34:39;57.54;42.16;71.00;;
57439;Laerm;43282;47.188;8.896;2023-07-09T03:37:05;55.92;42.76;69.81;;
57439;Laerm;43282;47.188;8.896;2023-07-09T03:39:30;54.46;41.53;68.23;;
57439;Laerm;43282;47.188;8.896;2023-07-09T03:41:55;53.54;40.43;66.41;;
57439;Laerm;43282;47.188;8.896;2023-07-09T03:44:21;53.13;40.53;66.68;;
57439;Laerm;43282;47.188;8.896;2023-07-09T03:46:46;52.07;41.89;67.67;;
57439;Laerm;43282;47.188;8.896;2023-07-09T03:49:12;52.60;40.33;66.50;;
57439;Laerm;43282;47.188;8.896;2023-07-09T03:51:37;46.49;40.98;58.92;;
57439;Laerm;43282;47.188;8.896;2023-07-09T03:54:02;51.44;41.14;71.78;;
57439;Laerm;43282;47.188;8.896;2023-07-09T03:56:28;49.64;41.06;62.98;;
57439;Laerm;43282;47.188;8.896;2023-07-09T03:58:53;49.75;41.82;63.81;;
57439;Laerm;43282;47.188;8.896;2023-07-09T04:01:18;49.17;40.53;66.27;;
57439;Laerm;43282;47.188;8.896;2023-07-09T04:03:44;51.36;41.96;64.76;;
57439;Laerm;43282;47.188;8.896;2023-07-09T04:06:09;53.57;42.29;68.50;;
57439;Laerm;43282;47.188;8.896;2023-07-09T04:08:35;53.48;42.16;68.89;;
57439;Laerm;43282;47.188;8.896;2023-07-09T04:11:01;50.27;41.96;64.50;;
57439;Laerm;43282;47.188;8.896;2023-07-09T04:13:26;50.65;41.06;65.58;;
57439;Laerm;43282;47.188;8.896;2023-07-09T04:15:53;45.98;41.06;60.60;;
57439;Laerm;43282;47.188;8.896;2023-07-09T04:18:18;48.49;40.80;61.08;;
57439;Laerm;43282;47.188;8.896;2023-07-09T04:20:47;49.46;41.89;61.67;;
57439;Laerm;43282;47.188;8.896;2023-07-09T04:23:12;45.76;40.23;63.16;;
57439;Laerm;43282;47.188;8.896;2023-07-09T04:25:38;49.48;39.08;62.10;;
57439;Laerm;43282;47.188;8.896;2023-07-09T04:28:03;47.32;39.21;64.95;;
57439;Laerm;43282;47.188;8.896;2023-07-09T04:30:28;45.62;39.57;54.84;;
57439;Laerm;43282;47.188;8.896;2023-07-09T04:32:54;48.54;40.03;60.84;;
57439;Laerm;43282;47.188;8.896;2023-07-09T04:35:19;46.07;40.33;60.78;;
57439;Laerm;43282;47.188;8.896;2023-07-09T04:37:44;55.32;40.43;73.95;;
57439;Laerm;43282;47.188;8.896;2023-07-09T04:40:11;48.44;40.89;61.73;;
57439;Laerm;43282;47.188;8.896;2023-07-09T04:42:37;49.70;41.38;64.79;;
57439;Laerm;43282;47.188;8.896;2023-07-09T04:45:03;51.95;41.96;64.87;;
57439;Laerm;43282;47.188;8.896;2023-07-09T04:47:43;53.02;41.22;70.45;;
57439;Laerm;43282;47.188;8.896;2023-07-09T04:50:08;52.67;40.98;67.74;;
57439;Laerm;43282;47.188;8.896;2023-07-09T04:52:34;51.66;40.33;69.05;;
57439;Laerm;43282;47.188;8.896;2023-07-09T04:54:59;51.98;40.62;66.83;;
57439;Laerm;43282;47.188;8.896;2023-07-09T04:57:26;48.98;40.43;62.71;;
57439;Laerm;43282;47.188;8.896;2023-07-09T04:59:52;48.60;41.26;65.18;;
57439;Laerm;43282;47.188;8.896;2023-07-09T05:02:17;51.61;40.89;70.23;;
57439;Laerm;43282;47.188;8.896;2023-07-09T05:04:43;51.00;40.80;62.29;;
57439;Laerm;43282;47.188;8.896;2023-07-09T05:07:08;51.98;40.54;75.34;;
57439;Laerm;43282;47.188;8.896;2023-07-09T05:09:34;49.11;41.61;63.63;;
57439;Laerm;43282;47.188;8.896;2023-07-09T05:11:59;50.75;40.80;64.05;;
57439;Laerm;43282;47.188;8.896;2023-07-09T05:14:26;50.26;40.33;66.10;;
57439;Laerm;43282;47.188;8.896;2023-07-09T05:16:51;48.57;39.70;62.86;;
57439;Laerm;43282;47.188;8.896;2023-07-09T05:19:16;49.79;40.71;61.28;;
57439;Laerm;43282;47.188;8.896;2023-07-09T05:21:42;47.45;40.71;59.73;;
57439;Laerm;43282;47.188;8.896;2023-07-09T05:24:07;49.67;40.43;65.35;;
57439;Laerm;43282;47.188;8.896;2023-07-09T05:26:32;51.03;40.43;63.02;;
57439;Laerm;43282;47.188;8.896;2023-07-09T05:28:58;49.95;40.03;61.83;;
57439;Laerm;43282;47.188;8.896;2023-07-09T05:31:24;48.81;40.80;61.02;;
57439;Laerm;43282;47.188;8.896;2023-07-09T05:33:49;53.02;42.35;66.12;;
57439;Laerm;43282;47.188;8.896;2023-07-09T05:36:14;54.19;40.89;69.66;;
57439;Laerm;43282;47.188;8.896;2023-07-09T05:38:44;50.01;40.71;62.57;;
57439;Laerm;43282;47.188;8.896;2023-07-09T05:41:11;52.44;39.70;66.17;;
57439;Laerm;43282;47.188;8.896;2023-07-09T05:43:36;48.22;40.71;59.78;;
57439;Laerm;43282;47.188;8.896;2023-07-09T05:46:02;52.50;41.61;65.75;;
57439;Laerm;43282;47.188;8.896;2023-07-09T05:48:28;48.98;41.75;62.11;;
57439;Laerm;43282;47.188;8.896;2023-07-09T05:50:54;52.84;41.30;66.99;;
57439;Laerm;43282;47.188;8.896;2023-07-09T05:53:22;50.11;41.30;68.02;;
57439;Laerm;43282;47.188;8.896;2023-07-09T05:55:48;52.86;41.55;66.20;;
57439;Laerm;43282;47.188;8.896;2023-07-09T05:58:13;52.46;43.09;66.24;;
57439;Laerm;43282;47.188;8.896;2023-07-09T06:00:39;51.58;41.82;66.43;;
57439;Laerm;43282;47.188;8.896;2023-07-09T06:03:06;52.20;42.93;67.50;;
57439;Laerm;43282;47.188;8.896;2023-07-09T06:05:32;50.51;42.79;61.52;;
57439;Laerm;43282;47.188;8.896;2023-07-09T06:07:58;50.38;42.09;63.20;;
57439;Laerm;43282;47.188;8.896;2023-07-09T06:10:23;47.75;41.75;59.64;;
57439;Laerm;43282;47.188;8.896;2023-07-09T06:12:48;47.34;40.71;61.98;;
57439;Laerm;43282;47.188;8.896;2023-07-09T06:15:14;53.60;41.61;65.70;;
57439;Laerm;43282;47.188;8.896;2023-07-09T06:17:39;59.71;42.53;74.22;;
57439;Laerm;43282;47.188;8.896;2023-07-09T06:20:05;50.07;42.47;65.87;;
57439;Laerm;43282;47.188;8.896;2023-07-09T06:22:30;47.64;40.71;60.48;;
57439;Laerm;43282;47.188;8.896;2023-07-09T06:24:56;52.41;41.14;69.46;;
57439;Laerm;43282;47.188;8.896;2023-07-09T06:27:21;50.90;42.09;64.03;;
57439;Laerm;43282;47.188;8.896;2023-07-09T06:29:46;50.70;41.30;63.90;;
57439;Laerm;43282;47.188;8.896;2023-07-09T06:32:12;50.91;40.71;63.73;;
57439;Laerm;43282;47.188;8.896;2023-07-09T06:34:37;50.67;41.75;71.56;;
57439;Laerm;43282;47.188;8.896;2023-07-09T06:37:02;57.02;41.82;78.74;;
57439;Laerm;43282;47.188;8.896;2023-07-09T06:39:30;55.05;42.03;73.69;;
57439;Laerm;43282;47.188;8.896;2023-07-09T06:41:55;49.80;41.14;61.91;;
57439;Laerm;43282;47.188;8.896;2023-07-09T06:44:21;50.98;41.30;69.16;;
57439;Laerm;43282;47.188;8.896;2023-07-09T06:46:47;52.06;40.43;65.87;;
57439;Laerm;43282;47.188;8.896;2023-07-09T06:49:13;54.14;41.61;65.48;;
57439;Laerm;43282;47.188;8.896;2023-07-09T06:51:38;53.54;40.98;66.37;;
57439;Laerm;43282;47.188;8.896;2023-07-09T06:54:04;53.12;41.61;66.41;;
57439;Laerm;43282;47.188;8.896;2023-07-09T06:56:30;56.98;43.39;66.99;;
57439;Laerm;43282;47.188;8.896;2023-07-09T06:58:55;53.56;42.93;65.14;;
57439;Laerm;43282;47.188;8.896;2023-07-09T07:01:21;55.81;43.44;73.66;;
57439;Laerm;43282;47.188;8.896;2023-07-09T07:03:47;50.78;43.58;62.13;;
57439;Laerm;43282;47.188;8.896;2023-07-09T07:06:12;53.34;43.04;65.05;;
57439;Laerm;43282;47.188;8.896;2023-07-09T07:08:37;52.76;42.71;66.95;;
57439;Laerm;43282;47.188;8.896;2023-07-09T07:11:03;53.46;42.98;65.80;;
57439;Laerm;43282;47.188;8.896;2023-07-09T07:15:55;59.90;45.04;74.93;;
57439;Laerm;43282;47.188;8.896;2023-07-09T07:18:20;52.03;43.09;63.92;;
57439;Laerm;43282;47.188;8.896;2023-07-09T07:20:46;52.48;43.49;64.75;;
57439;Laerm;43282;47.188;8.896;2023-07-09T07:23:11;53.40;42.42;72.05;;
57439;Laerm;43282;47.188;8.896;2023-07-09T07:25:37;55.40;43.58;72.42;;
57439;Laerm;43282;47.188;8.896;2023-07-09T07:28:10;51.30;45.51;60.83;;
57439;Laerm;43282;47.188;8.896;2023-07-09T07:30:35;54.06;43.81;65.60;;
57439;Laerm;43282;47.188;8.896;2023-07-09T07:33:00;53.78;43.29;69.53;;
57439;Laerm;43282;47.188;8.896;2023-07-09T07:35:26;52.65;43.68;68.02;;
57439;Laerm;43282;47.188;8.896;2023-07-09T07:37:51;55.43;43.72;68.44;;
57439;Laerm;43282;47.188;8.896;2023-07-09T07:40:16;58.02;43.14;76.01;;
57439;Laerm;43282;47.188;8.896;2023-07-09T07:42:41;55.39;44.03;73.13;;
57439;Laerm;43282;47.188;8.896;2023-07-09T07:45:07;56.06;43.19;72.07;;
57439;Laerm;43282;47.188;8.896;2023-07-09T07:47:32;52.19;42.71;63.90;;
57439;Laerm;43282;47.188;8.896;2023-07-09T07:49:58;52.99;42.41;65.66;;
57439;Laerm;43282;47.188;8.896;2023-07-09T07:52:24;52.91;43.63;62.72;;
57439;Laerm;43282;47.188;8.896;2023-07-09T07:54:49;54.92;45.75;66.44;;
57439;Laerm;43282;47.188;8.896;2023-07-09T07:57:18;57.02;45.23;70.42;;
57439;Laerm;43282;47.188;8.896;2023-07-09T07:59:47;54.92;44.87;66.37;;
57439;Laerm;43282;47.188;8.896;2023-07-09T08:02:13;55.05;43.72;68.18;;
57439;Laerm;43282;47.188;8.896;2023-07-09T08:04:39;55.70;44.54;70.93;;
57439;Laerm;43282;47.188;8.896;2023-07-09T08:07:05;53.78;42.98;65.09;;
57439;Laerm;43282;47.188;8.896;2023-07-09T08:09:33;51.53;42.29;64.30;;
57439;Laerm;43282;47.188;8.896;2023-07-09T08:11:58;61.32;42.53;79.51;;
57439;Laerm;43282;47.188;8.896;2023-07-09T08:14:23;54.02;42.59;67.72;;
57439;Laerm;43282;47.188;8.896;2023-07-09T08:16:49;56.29;43.29;70.67;;
57439;Laerm;43282;47.188;8.896;2023-07-09T08:19:17;53.20;43.04;68.61;;
57439;Laerm;43282;47.188;8.896;2023-07-09T08:21:43;60.31;44.03;76.89;;
57439;Laerm;43282;47.188;8.896;2023-07-09T08:24:08;52.69;43.64;67.15;;
57439;Laerm;43282;47.188;8.896;2023-07-09T08:26:36;53.86;45.11;65.06;;
57439;Laerm;43282;47.188;8.896;2023-07-09T08:29:03;59.83;45.01;77.20;;
57439;Laerm;43282;47.188;8.896;2023-07-09T08:31:28;56.02;44.47;70.39;;
57439;Laerm;43282;47.188;8.896;2023-07-09T08:33:53;53.89;43.68;70.86;;
57439;Laerm;43282;47.188;8.896;2023-07-09T08:36:19;52.95;43.54;66.56;;
57439;Laerm;43282;47.188;8.896;2023-07-09T08:38:44;53.83;43.29;66.68;;
57439;Laerm;43282;47.188;8.896;2023-07-09T08:41:54;55.35;43.63;69.91;;
57439;Laerm;43282;47.188;8.896;2023-07-09T08:44:09;53.54;43.49;65.49;;
57439;Laerm;43282;47.188;8.896;2023-07-09T08:49:16;53.12;44.43;62.73;;
57439;Laerm;43282;47.188;8.896;2023-07-09T08:51:43;55.45;44.15;68.19;;
57439;Laerm;43282;47.188;8.896;2023-07-09T08:54:13;50.63;43.29;63.87;;
57439;Laerm;43282;47.188;8.896;2023-07-09T08:56:40;54.42;43.68;67.68;;
57439;Laerm;43282;47.188;8.896;2023-07-09T08:59:07;52.08;42.53;66.20;;
57439;Laerm;43282;47.188;8.896;2023-07-09T09:01:35;53.66;42.53;67.79;;
57439;Laerm;43282;47.188;8.896;2023-07-09T09:06:33;53.58;43.90;67.18;;
57439;Laerm;43282;47.188;8.896;2023-07-09T09:14:16;55.64;43.58;73.59;;
57439;Laerm;43282;47.188;8.896;2023-07-09T09:16:43;55.26;43.39;82.11;;
57439;Laerm;43282;47.188;8.896;2023-07-09T09:22:17;54.64;43.77;69.29;;
57439;Laerm;43282;47.188;8.896;2023-07-09T09:27:12;59.46;44.34;81.99;;
57439;Laerm;43282;47.188;8.896;2023-07-09T09:29:38;53.28;44.23;65.68;;
57439;Laerm;43282;47.188;8.896;2023-07-09T09:32:11;55.18;43.63;68.15;;
57439;Laerm;43282;47.188;8.896;2023-07-09T09:34:40;53.44;42.35;69.32;;
57439;Laerm;43282;47.188;8.896;2023-07-09T09:37:09;54.28;43.14;70.29;;
57439;Laerm;43282;47.188;8.896;2023-07-09T09:39:37;54.25;42.82;68.42;;
57439;Laerm;43282;47.188;8.896;2023-07-09T09:42:03;53.98;43.04;72.82;;
57439;Laerm;43282;47.188;8.896;2023-07-09T09:44:34;55.76;45.04;71.35;;
57439;Laerm;43282;47.188;8.896;2023-07-09T09:47:00;52.84;45.07;67.91;;
57439;Laerm;43282;47.188;8.896;2023-07-09T09:49:25;49.91;42.16;71.35;;
57439;Laerm;43282;47.188;8.896;2023-07-09T09:51:51;56.11;44.23;73.95;;
57439;Laerm;43282;47.188;8.896;2023-07-09T09:54:20;54.66;44.07;68.06;;
57439;Laerm;43282;47.188;8.896;2023-07-09T09:56:47;57.34;45.07;73.89;;
57439;Laerm;43282;47.188;8.896;2023-07-09T09:59:18;55.91;44.65;71.02;;
57439;Laerm;43282;47.188;8.896;2023-07-09T10:01:44;54.24;44.23;69.76;;
57439;Laerm;43282;47.188;8.896;2023-07-09T10:04:10;57.02;44.15;71.71;;
57439;Laerm;43282;47.188;8.896;2023-07-09T10:06:42;53.74;43.58;73.12;;
57439;Laerm;43282;47.188;8.896;2023-07-09T10:09:13;57.62;43.58;73.03;;
57439;Laerm;43282;47.188;8.896;2023-07-09T10:11:47;56.51;43.34;76.65;;
57439;Laerm;43282;47.188;8.896;2023-07-09T10:16:44;53.26;42.93;66.46;;
57439;Laerm;43282;47.188;8.896;2023-07-09T10:21:54;54.83;43.77;69.65;;
57439;Laerm;43282;47.188;8.896;2023-07-09T10:32:19;51.08;42.16;64.04;;
57439;Laerm;43282;47.188;8.896;2023-07-09T10:40:03;53.59;42.29;64.65;;
57439;Laerm;43282;47.188;8.896;2023-07-09T10:42:34;51.39;41.75;67.01;;
57439;Laerm;43282;47.188;8.896;2023-07-09T10:48:05;54.27;42.71;66.33;;
57439;Laerm;43282;47.188;8.896;2023-07-09T10:50:34;53.00;42.29;65.34;;
57439;Laerm;43282;47.188;8.896;2023-07-09T10:53:03;51.40;42.03;65.00;;
57439;Laerm;43282;47.188;8.896;2023-07-09T10:55:37;52.85;42.03;66.13;;
57439;Laerm;43282;47.188;8.896;2023-07-09T10:58:05;51.90;42.09;63.53;;
57439;Laerm;43282;47.188;8.896;2023-07-09T11:00:36;55.96;42.30;73.82;;
57439;Laerm;43282;47.188;8.896;2023-07-09T11:03:07;51.77;41.06;71.01;;
57439;Laerm;43282;47.188;8.896;2023-07-09T11:05:38;54.26;41.46;66.40;;
57439;Laerm;43282;47.188;8.896;2023-07-09T11:10:59;50.06;40.89;65.98;;
57439;Laerm;43282;47.188;8.896;2023-07-09T11:16:27;54.71;41.75;67.03;;
57439;Laerm;43282;47.188;8.896;2023-07-09T11:18:55;52.72;42.41;65.77;;
57439;Laerm;43282;47.188;8.896;2023-07-09T11:21:21;61.54;42.65;79.02;;
57439;Laerm;43282;47.188;8.896;2023-07-09T11:23:49;51.92;42.76;67.40;;
57439;Laerm;43282;47.188;8.896;2023-07-09T11:26:29;51.39;41.82;64.99;;
57439;Laerm;43282;47.188;8.896;2023-07-09T11:31:44;51.56;42.59;64.69;;
57439;Laerm;43282;47.188;8.896;2023-07-09T11:42:02;54.22;42.29;70.24;;
57439;Laerm;43282;47.188;8.896;2023-07-09T11:44:29;53.83;42.29;70.67;;
57439;Laerm;43282;47.188;8.896;2023-07-09T11:47:00;52.83;42.35;67.79;;
57439;Laerm;43282;47.188;8.896;2023-07-09T11:49:32;53.97;42.98;68.30;;
57439;Laerm;43282;47.188;8.896;2023-07-09T11:52:07;54.75;41.53;67.65;;
57439;Laerm;43282;47.188;8.896;2023-07-09T11:54:33;56.27;42.59;69.04;;
57439;Laerm;43282;47.188;8.896;2023-07-09T11:56:59;54.44;42.41;71.17;;
57439;Laerm;43282;47.188;8.896;2023-07-09T11:59:26;61.55;42.47;78.80;;
57439;Laerm;43282;47.188;8.896;2023-07-09T12:01:52;55.60;41.30;70.82;;
57439;Laerm;43282;47.188;8.896;2023-07-09T12:04:20;52.99;41.38;67.92;;
57439;Laerm;43282;47.188;8.896;2023-07-09T12:06:46;52.32;41.89;64.60;;
57439;Laerm;43282;47.188;8.896;2023-07-09T12:09:14;50.84;41.38;64.53;;
57439;Laerm;43282;47.188;8.896;2023-07-09T12:11:43;52.02;40.71;71.83;;
57439;Laerm;43282;47.188;8.896;2023-07-09T12:14:13;59.12;40.98;75.36;;
57439;Laerm;43282;47.188;8.896;2023-07-09T12:16:40;52.17;40.71;65.50;;
57439;Laerm;43282;47.188;8.896;2023-07-09T12:19:06;53.79;41.68;67.96;;
57439;Laerm;43282;47.188;8.896;2023-07-09T12:21:34;53.48;41.61;68.14;;
57439;Laerm;43282;47.188;8.896;2023-07-09T12:24:00;50.45;41.30;65.94;;
57439;Laerm;43282;47.188;8.896;2023-07-09T12:26:30;55.42;41.68;72.45;;
57439;Laerm;43282;47.188;8.896;2023-07-09T12:28:56;54.72;42.22;65.89;;
57439;Laerm;43282;47.188;8.896;2023-07-09T12:31:26;53.23;42.16;66.76;;
57439;Laerm;43282;47.188;8.896;2023-07-09T12:33:53;54.71;41.61;67.70;;
57439;Laerm;43282;47.188;8.896;2023-07-09T12:36:27;52.41;42.16;64.84;;
57439;Laerm;43282;47.188;8.896;2023-07-09T12:38:55;53.58;41.61;67.75;;
57439;Laerm;43282;47.188;8.896;2023-07-09T12:41:26;49.47;41.14;64.09;;
57439;Laerm;43282;47.188;8.896;2023-07-09T12:43:53;53.35;41.61;68.16;;
57439;Laerm;43282;47.188;8.896;2023-07-09T12:46:20;55.32;41.89;72.81;;
57439;Laerm;43282;47.188;8.896;2023-07-09T12:48:48;52.62;40.89;64.48;;
57439;Laerm;43282;47.188;8.896;2023-07-09T12:51:22;59.62;40.80;75.97;;
57439;Laerm;43282;47.188;8.896;2023-07-09T12:53:49;52.30;41.38;66.53;;
57439;Laerm;43282;47.188;8.896;2023-07-09T12:56:24;52.15;41.75;66.29;;
57439;Laerm;43282;47.188;8.896;2023-07-09T12:58:50;49.58;40.33;64.91;;
57439;Laerm;43282;47.188;8.896;2023-07-09T13:01:16;53.33;42.06;67.79;;
57439;Laerm;43282;47.188;8.896;2023-07-09T13:03:42;50.16;40.98;63.48;;
57439;Laerm;43282;47.188;8.896;2023-07-09T13:06:25;55.63;41.75;68.16;;
57439;Laerm;43282;47.188;8.896;2023-07-09T13:08:54;54.13;42.76;66.72;;
57439;Laerm;43282;47.188;8.896;2023-07-09T13:11:20;52.28;41.88;68.96;;
57439;Laerm;43282;47.188;8.896;2023-07-09T13:14:46;50.44;41.46;62.99;;
57439;Laerm;43282;47.188;8.896;2023-07-09T13:16:40;53.09;40.62;67.11;;
57439;Laerm;43282;47.188;8.896;2023-07-09T13:19:11;55.47;41.96;74.96;;
57439;Laerm;43282;47.188;8.896;2023-07-09T13:21:42;55.49;42.03;71.66;;
57439;Laerm;43282;47.188;8.896;2023-07-09T13:24:14;51.16;41.61;63.69;;
57439;Laerm;43282;47.188;8.896;2023-07-09T13:26:41;56.21;41.46;74.92;;
57439;Laerm;43282;47.188;8.896;2023-07-09T13:29:13;51.21;41.22;61.95;;
57439;Laerm;43282;47.188;8.896;2023-07-09T13:31:42;53.40;42.03;67.76;;
57439;Laerm;43282;47.188;8.896;2023-07-09T13:34:16;57.90;42.65;73.90;;
57439;Laerm;43282;47.188;8.896;2023-07-09T13:36:43;51.54;40.80;74.22;;
57439;Laerm;43282;47.188;8.896;2023-07-09T13:39:09;56.70;41.30;72.60;;
57439;Laerm;43282;47.188;8.896;2023-07-09T13:41:35;53.52;41.53;70.74;;
57439;Laerm;43282;47.188;8.896;2023-07-09T13:44:01;52.06;40.71;68.46;;
57439;Laerm;43282;47.188;8.896;2023-07-09T13:46:26;54.84;41.38;68.69;;
57439;Laerm;43282;47.188;8.896;2023-07-09T13:48:52;54.07;40.71;70.30;;
57439;Laerm;43282;47.188;8.896;2023-07-09T13:51:21;53.39;41.68;72.28;;
57439;Laerm;43282;47.188;8.896;2023-07-09T13:53:51;58.76;40.80;80.30;;
57439;Laerm;43282;47.188;8.896;2023-07-09T13:56:18;52.38;40.80;71.56;;
57439;Laerm;43282;47.188;8.896;2023-07-09T13:58:43;54.31;41.75;69.62;;
57439;Laerm;43282;47.188;8.896;2023-07-09T14:01:10;52.36;41.82;67.81;;
57439;Laerm;43282;47.188;8.896;2023-07-09T14:03:36;53.55;41.46;68.72;;
57439;Laerm;43282;47.188;8.896;2023-07-09T14:06:02;51.99;41.30;73.45;;
57439;Laerm;43282;47.188;8.896;2023-07-09T14:08:27;54.34;41.06;69.39;;
57439;Laerm;43282;47.188;8.896;2023-07-09T14:10:53;52.45;40.98;71.69;;
57439;Laerm;43282;47.188;8.896;2023-07-09T14:13:37;50.85;39.58;65.90;;
57439;Laerm;43282;47.188;8.896;2023-07-09T14:16:02;52.78;40.80;68.39;;
57439;Laerm;43282;47.188;8.896;2023-07-09T14:18:28;55.00;41.82;67.79;;
57439;Laerm;43282;47.188;8.896;2023-07-09T14:20:53;52.97;42.16;70.34;;
57439;Laerm;43282;47.188;8.896;2023-07-09T14:23:19;52.14;41.53;65.01;;
57439;Laerm;43282;47.188;8.896;2023-07-09T14:25:44;53.08;41.48;72.98;;
57439;Laerm;43282;47.188;8.896;2023-07-09T14:28:13;53.42;41.61;68.30;;
57439;Laerm;43282;47.188;8.896;2023-07-09T14:30:39;51.73;41.61;63.21;;
57439;Laerm;43282;47.188;8.896;2023-07-09T14:33:08;52.78;41.68;64.36;;
57439;Laerm;43282;47.188;8.896;2023-07-09T14:35:36;54.28;41.82;80.89;;
57439;Laerm;43282;47.188;8.896;2023-07-09T14:38:01;60.73;42.35;86.64;;
57439;Laerm;43282;47.188;8.896;2023-07-09T14:40:27;51.48;41.38;68.30;;
57439;Laerm;43282;47.188;8.896;2023-07-09T14:42:53;54.71;42.41;67.61;;